sensor_id;sensor_type;location;lat;lon;timestamp;pressure;altitude;pressure_sealevel;temperature;humidity
6034;BME280;3045;43.226;27.858;2023-07-08T00:02:11;152132.16;;;24.23;100.00
6034;BME280;3045;43.226;27.858;2023-07-08T00:04:39;152086.16;;;24.05;100.00
6034;BME280;3045;43.226;27.858;2023-07-08T00:07:10;152078.47;;;24.02;100.00
6034;BME280;3045;43.226;27.858;2023-07-08T00:09:37;152077.25;;;24.01;100.00
6034;BME280;3045;43.226;27.858;2023-07-08T00:12:08;152042.75;;;23.88;100.00
6034;BME280;3045;43.226;27.858;2023-07-08T00:14:36;152049.13;;;23.90;100.00
6034;BME280;3045;43.226;27.858;2023-07-08T00:17:08;140440.13;;;23.78;100.00
6034;BME280;3045;43.226;27.858;2023-07-08T00:19:36;132631.41;;;23.79;100.00
6034;BME280;3045;43.226;27.858;2023-07-08T00:22:09;125153.81;;;23.69;100.00
6034;BME280;3045;43.226;27.858;2023-07-08T00:24:37;116698.97;;;23.68;100.00
6034;BME280;3045;43.226;27.858;2023-07-08T00:27:07;112305.94;;;23.65;100.00
6034;BME280;3045;43.226;27.858;2023-07-08T00:29:37;112647.03;;;23.67;100.00
6034;BME280;3045;43.226;27.858;2023-07-08T00:32:09;109932.94;;;23.58;100.00
6034;BME280;3045;43.226;27.858;2023-07-08T00:34:36;103869.59;;;23.56;100.00
6034;BME280;3045;43.226;27.858;2023-07-08T00:37:03;94791.31;;;23.52;100.00
6034;BME280;3045;43.226;27.858;2023-07-08T00:39:30;89756.34;;;23.48;100.00
6034;BME280;3045;43.226;27.858;2023-07-08T00:41:58;84384.13;;;23.36;100.00
6034;BME280;3045;43.226;27.858;2023-07-08T00:44:28;83032.63;;;23.26;100.00
6034;BME280;3045;43.226;27.858;2023-07-08T00:46:58;81714.69;;;23.40;100.00
6034;BME280;3045;43.226;27.858;2023-07-08T00:49:34;76678.41;;;23.18;100.00
6034;BME280;3045;43.226;27.858;2023-07-08T00:52:23;75023.72;;;23.29;100.00
6034;BME280;3045;43.226;27.858;2023-07-08T00:54:52;76696.00;;;23.32;100.00
6034;BME280;3045;43.226;27.858;2023-07-08T00:57:21;78370.63;;;23.37;100.00
6034;BME280;3045;43.226;27.858;2023-07-08T00:59:54;78369.97;;;23.36;100.00
6034;BME280;3045;43.226;27.858;2023-07-08T01:02:25;76355.88;;;23.27;100.00
6034;BME280;3045;43.226;27.858;2023-07-08T01:04:56;74341.69;;;23.16;100.00
6034;BME280;3045;43.226;27.858;2023-07-08T01:07:26;68007.25;;;23.10;100.00
6034;BME280;3045;43.226;27.858;2023-07-08T01:09:58;66671.09;;;23.05;100.00
6034;BME280;3045;43.226;27.858;2023-07-08T01:12:30;65007.75;;;23.04;100.00
6034;BME280;3045;43.226;27.858;2023-07-08T01:15:02;64655.50;;;22.86;100.00
6034;BME280;3045;43.226;27.858;2023-07-08T01:17:29;62337.63;;;22.93;100.00
6034;BME280;3045;43.226;27.858;2023-07-08T01:19:58;64999.97;;;22.97;100.00
6034;BME280;3045;43.226;27.858;2023-07-08T01:24:58;67319.53;;;22.91;100.00
6034;BME280;3045;43.226;27.858;2023-07-08T01:27:29;69972.91;;;22.84;100.00
6034;BME280;3045;43.226;27.858;2023-07-08T01:29:58;64969.97;;;22.70;100.00
6034;BME280;3045;43.226;27.858;2023-07-08T01:32:25;62982.88;;;22.75;100.00
6034;BME280;3045;43.226;27.858;2023-07-08T01:34:56;62641.22;;;22.66;100.00
6034;BME280;3045;43.226;27.858;2023-07-08T01:37:31;61992.31;;;22.80;100.00
6034;BME280;3045;43.226;27.858;2023-07-08T01:40:14;63655.66;;;22.83;100.00
6034;BME280;3045;43.226;27.858;2023-07-08T01:42:41;65984.66;;;22.86;100.00
6034;BME280;3045;43.226;27.858;2023-07-08T01:45:11;64646.66;;;22.78;100.00
6034;BME280;3045;43.226;27.858;2023-07-08T01:47:39;65645.03;;;22.80;100.00
6034;BME280;3045;43.226;27.858;2023-07-08T01:50:07;62970.44;;;22.63;100.00
6034;BME280;3045;43.226;27.858;2023-07-08T01:52:36;62971.00;;;22.64;100.00
6034;BME280;3045;43.226;27.858;2023-07-08T01:55:04;63971.34;;;22.68;100.00
6034;BME280;3045;43.226;27.858;2023-07-08T01:57:31;66289.81;;;22.62;100.00
6034;BME280;3045;43.226;27.858;2023-07-08T02:00:00;64293.53;;;22.59;100.00
6034;BME280;3045;43.226;27.858;2023-07-08T02:02:27;67952.66;;;22.63;100.00
6034;BME280;3045;43.226;27.858;2023-07-08T02:04:54;67612.75;;;22.56;100.00
6034;BME280;3045;43.226;27.858;2023-07-08T02:07:21;68253.66;;;22.36;100.00
6034;BME280;3045;43.226;27.858;2023-07-08T02:09:49;66601.03;;;22.43;100.00
6034;BME280;3045;43.226;27.858;2023-07-08T02:12:19;67936.44;;;22.49;100.00
6034;BME280;3045;43.226;27.858;2023-07-08T02:14:45;68596.50;;;22.45;100.00
6034;BME280;3045;43.226;27.858;2023-07-08T02:17:12;67931.78;;;22.45;100.00
6034;BME280;3045;43.226;27.858;2023-07-08T02:19:42;73915.16;;;22.42;100.00
6034;BME280;3045;43.226;27.858;2023-07-08T02:22:09;74251.88;;;22.45;100.00
6034;BME280;3045;43.226;27.858;2023-07-08T02:24:36;79589.16;;;22.49;100.00
6034;BME280;3045;43.226;27.858;2023-07-08T02:27:04;80582.25;;;22.44;100.00
6034;BME280;3045;43.226;27.858;2023-07-08T02:29:31;78237.56;;;22.36;100.00
6034;BME280;3045;43.226;27.858;2023-07-08T02:31:58;81239.09;;;22.36;100.00
6034;BME280;3045;43.226;27.858;2023-07-08T02:34:25;77564.44;;;22.30;100.00
6034;BME280;3045;43.226;27.858;2023-07-08T02:36:52;77539.38;;;22.11;100.00
6034;BME280;3045;43.226;27.858;2023-07-08T02:39:18;76228.69;;;22.28;100.00
6034;BME280;3045;43.226;27.858;2023-07-08T02:41:45;76222.22;;;22.23;100.00
6034;BME280;3045;43.226;27.858;2023-07-08T02:44:14;75559.47;;;22.25;100.00
6034;BME280;3045;43.226;27.858;2023-07-08T02:46:40;78884.06;;;22.20;100.00
6034;BME280;3045;43.226;27.858;2023-07-08T02:49:07;78225.56;;;22.26;100.00
6034;BME280;3045;43.226;27.858;2023-07-08T02:51:34;81897.94;;;22.30;100.00
6034;BME280;3045;43.226;27.858;2023-07-08T02:54:01;82575.03;;;22.37;100.00
6034;BME280;3045;43.226;27.858;2023-07-08T02:56:28;86916.00;;;22.37;100.00
6034;BME280;3045;43.226;27.858;2023-07-08T02:58:55;86580.44;;;22.36;100.00
6034;BME280;3045;43.226;27.858;2023-07-08T03:01:23;82237.84;;;22.35;100.00
6034;BME280;3045;43.226;27.858;2023-07-08T03:03:52;85918.84;;;22.41;100.00
6034;BME280;3045;43.226;27.858;2023-07-08T03:06:25;88249.06;;;22.35;100.00
6034;BME280;3045;43.226;27.858;2023-07-08T03:08:52;90581.91;;;22.29;100.00
6034;BME280;3045;43.226;27.858;2023-07-08T03:11:19;93945.44;;;22.41;100.00
6034;BME280;3045;43.226;27.858;2023-07-08T03:13:46;96957.78;;;22.39;100.00
6034;BME280;3045;43.226;27.858;2023-07-08T03:16:13;97298.66;;;22.43;100.00
6034;BME280;3045;43.226;27.858;2023-07-08T03:18:41;101617.31;;;22.18;100.00
6034;BME280;3045;43.226;27.858;2023-07-08T03:21:12;107707.91;;;22.45;100.00
6034;BME280;3045;43.226;27.858;2023-07-08T03:23:40;113745.16;;;22.35;100.00
6034;BME280;3045;43.226;27.858;2023-07-08T03:26:07;113769.13;;;22.47;100.00
6034;BME280;3045;43.226;27.858;2023-07-08T03:28:39;107694.25;;;22.37;100.00
6034;BME280;3045;43.226;27.858;2023-07-08T03:31:08;110388.13;;;22.39;100.00
6034;BME280;3045;43.226;27.858;2023-07-08T03:33:35;109718.13;;;22.41;100.00
6034;BME280;3045;43.226;27.858;2023-07-08T03:36:07;111054.44;;;22.36;100.00
6034;BME280;3045;43.226;27.858;2023-07-08T03:38:37;109358.72;;;22.28;100.00
6034;BME280;3045;43.226;27.858;2023-07-08T03:41:04;105337.66;;;22.35;100.00
6034;BME280;3045;43.226;27.858;2023-07-08T03:43:31;112071.50;;;22.40;100.00
6034;BME280;3045;43.226;27.858;2023-07-08T03:45:58;116125.38;;;22.46;100.00
6034;BME280;3045;43.226;27.858;2023-07-08T03:48:25;122192.41;;;22.44;100.00
6034;BME280;3045;43.226;27.858;2023-07-08T03:50:53;117802.81;;;22.42;100.00
6034;BME280;3045;43.226;27.858;2023-07-08T03:53:21;120493.81;;;22.39;100.00
6034;BME280;3045;43.226;27.858;2023-07-08T03:55:48;121856.88;;;22.45;100.00
6034;BME280;3045;43.226;27.858;2023-07-08T03:58:15;116444.72;;;22.37;100.00
6034;BME280;3045;43.226;27.858;2023-07-08T04:00:42;124895.03;;;22.45;100.00
6034;BME280;3045;43.226;27.858;2023-07-08T04:03:10;134765.66;;;22.71;100.00
6034;BME280;3045;43.226;27.858;2023-07-08T04:05:38;134059.69;;;22.59;100.00
6034;BME280;3045;43.226;27.858;2023-07-08T04:08:05;142554.50;;;22.77;100.00
6034;BME280;3045;43.226;27.858;2023-07-08T04:10:33;148601.75;;;22.82;100.00
6034;BME280;3045;43.226;27.858;2023-07-08T04:13:00;149687.97;;;22.81;100.00
6034;BME280;3045;43.226;27.858;2023-07-08T04:15:27;151615.13;;;22.93;100.00
6034;BME280;3045;43.226;27.858;2023-07-08T04:17:54;151799.00;;;22.91;100.00
6034;BME280;3045;43.226;27.858;2023-07-08T04:20:23;151815.56;;;22.98;100.00
6034;BME280;3045;43.226;27.858;2023-07-08T04:22:49;151821.91;;;23.00;100.00
6034;BME280;3045;43.226;27.858;2023-07-08T04:25:18;151819.41;;;22.99;100.00
6034;BME280;3045;43.226;27.858;2023-07-08T04:27:46;151833.41;;;23.05;100.00
6034;BME280;3045;43.226;27.858;2023-07-08T04:30:22;151819.41;;;22.99;100.00
6034;BME280;3045;43.226;27.858;2023-07-08T04:32:50;151832.13;;;23.04;100.00
6034;BME280;3045;43.226;27.858;2023-07-08T04:35:17;151843.59;;;23.09;100.00
6034;BME280;3045;43.226;27.858;2023-07-08T04:37:44;151843.59;;;23.09;100.00
6034;BME280;3045;43.226;27.858;2023-07-08T04:40:17;151843.59;;;23.09;100.00
6034;BME280;3045;43.226;27.858;2023-07-08T04:42:46;151865.28;;;23.17;100.00
6034;BME280;3045;43.226;27.858;2023-07-08T04:45:15;151851.28;;;23.12;100.00
6034;BME280;3045;43.226;27.858;2023-07-08T04:47:42;151844.88;;;23.09;100.00
6034;BME280;3045;43.226;27.858;2023-07-08T04:50:12;151815.56;;;22.98;100.00
6034;BME280;3045;43.226;27.858;2023-07-08T04:52:39;151827.03;;;23.02;100.00
6034;BME280;3045;43.226;27.858;2023-07-08T04:55:06;151844.88;;;23.09;100.00
6034;BME280;3045;43.226;27.858;2023-07-08T04:57:35;151819.41;;;22.99;100.00
6034;BME280;3045;43.226;27.858;2023-07-08T05:00:04;151815.56;;;22.98;100.00
6034;BME280;3045;43.226;27.858;2023-07-08T05:02:35;151806.63;;;22.94;100.00
6034;BME280;3045;43.226;27.858;2023-07-08T05:05:03;151816.84;;;22.98;100.00
6034;BME280;3045;43.226;27.858;2023-07-08T05:07:30;151834.69;;;23.05;100.00
6034;BME280;3045;43.226;27.858;2023-07-08T05:09:57;151853.81;;;23.13;100.00
6034;BME280;3045;43.226;27.858;2023-07-08T05:12:25;151857.66;;;23.14;100.00
6034;BME280;3045;43.226;27.858;2023-07-08T05:14:52;151851.28;;;23.12;100.00
6034;BME280;3045;43.226;27.858;2023-07-08T05:17:20;151876.78;;;23.22;100.00
6034;BME280;3045;43.226;27.858;2023-07-08T05:19:47;151907.41;;;23.34;100.00
6034;BME280;3045;43.226;27.858;2023-07-08T05:22:16;151862.78;;;23.16;100.00
6034;BME280;3045;43.226;27.858;2023-07-08T05:24:43;151870.41;;;23.19;100.00
6034;BME280;3045;43.226;27.858;2023-07-08T05:27:10;151935.56;;;23.45;100.00
6034;BME280;3045;43.226;27.858;2023-07-08T05:29:39;151832.13;;;23.04;100.00
6034;BME280;3045;43.226;27.858;2023-07-08T05:32:06;151901.03;;;23.32;100.00
6034;BME280;3045;43.226;27.858;2023-07-08T05:34:35;151913.81;;;23.37;100.00
6034;BME280;3045;43.226;27.858;2023-07-08T05:37:02;151881.91;;;23.24;100.00
6034;BME280;3045;43.226;27.858;2023-07-08T05:39:29;151939.34;;;23.47;100.00
6034;BME280;3045;43.226;27.858;2023-07-08T05:41:56;151959.81;;;23.55;100.00
6034;BME280;3045;43.226;27.858;2023-07-08T05:44:23;151986.59;;;23.65;100.00
6034;BME280;3045;43.226;27.858;2023-07-08T05:46:50;152044.03;;;23.88;100.00
6034;BME280;3045;43.226;27.858;2023-07-08T05:49:17;152093.81;;;24.08;100.00
6034;BME280;3045;43.226;27.858;2023-07-08T05:51:45;152128.34;;;24.22;100.00
6034;BME280;3045;43.226;27.858;2023-07-08T05:54:12;152217.69;;;24.57;100.00
6034;BME280;3045;43.226;27.858;2023-07-08T05:56:39;152336.53;;;25.04;100.00
6034;BME280;3045;43.226;27.858;2023-07-08T05:59:06;152491.22;;;25.65;100.00
6034;BME280;3045;43.226;27.858;2023-07-08T06:01:33;152661.25;;;26.32;100.00
6034;BME280;3045;43.226;27.858;2023-07-08T06:04:00;152767.38;;;26.74;100.00
6034;BME280;3045;43.226;27.858;2023-07-08T06:06:27;152869.78;;;27.15;100.00
6034;BME280;3045;43.226;27.858;2023-07-08T06:08:55;152942.69;;;27.44;100.00
6034;BME280;3045;43.226;27.858;2023-07-08T06:11:22;152892.81;;;27.24;100.00
6034;BME280;3045;43.226;27.858;2023-07-08T06:13:49;152782.75;;;26.80;100.00
6034;BME280;3045;43.226;27.858;2023-07-08T06:16:16;152640.81;;;26.24;100.00
6034;BME280;3045;43.226;27.858;2023-07-08T06:18:43;152480.97;;;25.61;100.00
6034;BME280;3045;43.226;27.858;2023-07-08T06:21:10;152376.16;;;25.20;100.00
6034;BME280;3045;43.226;27.858;2023-07-08T06:23:36;152392.75;;;25.26;100.00
6034;BME280;3045;43.226;27.858;2023-07-08T06:26:05;152336.53;;;25.04;100.00
6034;BME280;3045;43.226;27.858;2023-07-08T06:28:31;152340.38;;;25.06;100.00
6034;BME280;3045;43.226;27.858;2023-07-08T06:30:58;152337.81;;;25.05;100.00
6034;BME280;3045;43.226;27.858;2023-07-08T06:33:25;152286.69;;;24.84;100.00
6034;BME280;3045;43.226;27.858;2023-07-08T06:35:52;152316.09;;;24.96;100.00
6034;BME280;3045;43.226;27.858;2023-07-08T06:38:19;152296.94;;;24.88;100.00
6034;BME280;3045;43.226;27.858;2023-07-08T06:40:46;152256.03;;;24.72;100.00
6034;BME280;3045;43.226;27.858;2023-07-08T06:43:14;152296.94;;;24.88;100.00
6034;BME280;3045;43.226;27.858;2023-07-08T06:45:41;152266.25;;;24.76;100.00
6034;BME280;3045;43.226;27.858;2023-07-08T06:48:08;152227.97;;;24.61;100.00
6034;BME280;3045;43.226;27.858;2023-07-08T06:50:35;152276.47;;;24.80;100.00
6034;BME280;3045;43.226;27.858;2023-07-08T06:53:01;152303.31;;;24.91;100.00
6034;BME280;3045;43.226;27.858;2023-07-08T06:55:28;152350.59;;;25.10;100.00
6034;BME280;3045;43.226;27.858;2023-07-08T06:57:55;152386.38;;;25.24;100.00
6034;BME280;3045;43.226;27.858;2023-07-08T07:00:23;152419.63;;;25.37;100.00
6034;BME280;3045;43.226;27.858;2023-07-08T07:02:50;152442.63;;;25.46;100.00
6034;BME280;3045;43.226;27.858;2023-07-08T07:05:17;152445.13;;;25.47;100.00
6034;BME280;3045;43.226;27.858;2023-07-08T07:07:44;152440.06;;;25.45;100.00
6034;BME280;3045;43.226;27.858;2023-07-08T07:10:11;152455.34;;;25.51;100.00
6034;BME280;3045;43.226;27.858;2023-07-08T07:12:41;152484.84;;;25.63;100.00
6034;BME280;3045;43.226;27.858;2023-07-08T07:15:08;152447.72;;;25.48;100.00
6034;BME280;3045;43.226;27.858;2023-07-08T07:17:36;152484.84;;;25.63;100.00
6034;BME280;3045;43.226;27.858;2023-07-08T07:20:04;152470.75;;;25.57;100.00
6034;BME280;3045;43.226;27.858;2023-07-08T07:22:32;152491.22;;;25.65;100.00
6034;BME280;3045;43.226;27.858;2023-07-08T07:24:58;152562.75;;;25.93;100.00
6034;BME280;3045;43.226;27.858;2023-07-08T07:27:28;152572.97;;;25.98;100.00
6034;BME280;3045;43.226;27.858;2023-07-08T07:29:56;152580.69;;;26.01;100.00
6034;BME280;3045;43.226;27.858;2023-07-08T07:32:25;152578.13;;;26.00;100.00
6034;BME280;3045;43.226;27.858;2023-07-08T07:34:56;152602.44;;;26.09;100.00
6034;BME280;3045;43.226;27.858;2023-07-08T07:37:24;152574.28;;;25.98;100.00
6034;BME280;3045;43.226;27.858;2023-07-08T07:39:51;152638.22;;;26.23;100.00
6034;BME280;3045;43.226;27.858;2023-07-08T07:42:19;152658.69;;;26.31;100.00
6034;BME280;3045;43.226;27.858;2023-07-08T07:44:46;152665.09;;;26.34;100.00
6034;BME280;3045;43.226;27.858;2023-07-08T07:47:13;152714.94;;;26.54;100.00
6034;BME280;3045;43.226;27.858;2023-07-08T07:49:40;152748.22;;;26.67;100.00
6034;BME280;3045;43.226;27.858;2023-07-08T07:52:09;152711.09;;;26.52;100.00
6034;BME280;3045;43.226;27.858;2023-07-08T07:54:36;152706.00;;;26.50;100.00
6034;BME280;3045;43.226;27.858;2023-07-08T07:57:04;152662.53;;;26.33;100.00
6034;BME280;3045;43.226;27.858;2023-07-08T07:59:31;152642.09;;;26.25;100.00
6034;BME280;3045;43.226;27.858;2023-07-08T08:01:58;152721.38;;;26.56;100.00
6034;BME280;3045;43.226;27.858;2023-07-08T08:04:25;152769.94;;;26.75;100.00
6034;BME280;3045;43.226;27.858;2023-07-08T08:06:52;152808.34;;;26.91;100.00
6034;BME280;3045;43.226;27.858;2023-07-08T08:09:20;152883.81;;;27.20;100.00
6034;BME280;3045;43.226;27.858;2023-07-08T08:11:47;152945.25;;;27.45;100.00
6034;BME280;3045;43.226;27.858;2023-07-08T08:14:14;152992.63;;;27.63;100.00
6034;BME280;3045;43.226;27.858;2023-07-08T08:16:41;152926.03;;;27.37;100.00
6034;BME280;3045;43.226;27.858;2023-07-08T08:19:07;152894.03;;;27.24;100.00
6034;BME280;3045;43.226;27.858;2023-07-08T08:21:34;152845.47;;;27.05;100.00
6034;BME280;3045;43.226;27.858;2023-07-08T08:24:02;152798.13;;;26.87;100.00
6034;BME280;3045;43.226;27.858;2023-07-08T08:26:30;152845.47;;;27.05;100.00
6034;BME280;3045;43.226;27.858;2023-07-08T08:28:57;152826.28;;;26.98;100.00
6034;BME280;3045;43.226;27.858;2023-07-08T08:31:24;152855.69;;;27.09;100.00
6034;BME280;3045;43.226;27.858;2023-07-08T08:33:51;152839.09;;;27.03;100.00
6034;BME280;3045;43.226;27.858;2023-07-08T08:36:18;152839.09;;;27.03;100.00
6034;BME280;3045;43.226;27.858;2023-07-08T08:38:46;152821.16;;;26.96;100.00
6034;BME280;3045;43.226;27.858;2023-07-08T08:41:15;152882.56;;;27.20;100.00
6034;BME280;3045;43.226;27.858;2023-07-08T08:43:44;152874.88;;;27.17;100.00
6034;BME280;3045;43.226;27.858;2023-07-08T08:46:22;152821.16;;;26.96;100.00
6034;BME280;3045;43.226;27.858;2023-07-08T08:48:55;152818.56;;;26.95;100.00
6034;BME280;3045;43.226;27.858;2023-07-08T08:51:26;152821.16;;;26.96;100.00
6034;BME280;3045;43.226;27.858;2023-07-08T08:53:56;152828.84;;;26.99;100.00
6034;BME280;3045;43.226;27.858;2023-07-08T08:56:27;152873.59;;;27.16;100.00
6034;BME280;3045;43.226;27.858;2023-07-08T08:59:00;152882.56;;;27.20;100.00
6034;BME280;3045;43.226;27.858;2023-07-08T09:01:29;152903.03;;;27.28;100.00
6034;BME280;3045;43.226;27.858;2023-07-08T09:03:58;152913.28;;;27.32;100.00
6034;BME280;3045;43.226;27.858;2023-07-08T09:06:28;152922.22;;;27.36;100.00
6034;BME280;3045;43.226;27.858;2023-07-08T09:08:57;152938.84;;;27.42;100.00
6034;BME280;3045;43.226;27.858;2023-07-08T09:11:42;152918.38;;;27.34;100.00
6034;BME280;3045;43.226;27.858;2023-07-08T09:14:16;152924.78;;;27.37;100.00
6034;BME280;3045;43.226;27.858;2023-07-08T09:16:51;152926.03;;;27.37;100.00
6034;BME280;3045;43.226;27.858;2023-07-08T09:19:23;152912.00;;;27.32;100.00
6034;BME280;3045;43.226;27.858;2023-07-08T09:21:56;152913.28;;;27.32;100.00
6034;BME280;3045;43.226;27.858;2023-07-08T09:24:31;153010.56;;;27.70;100.00
6034;BME280;3045;43.226;27.858;2023-07-08T09:27:00;153069.41;;;27.94;100.00
6034;BME280;3045;43.226;27.858;2023-07-08T09:29:30;153034.84;;;27.80;100.00
6034;BME280;3045;43.226;27.858;2023-07-08T09:31:58;152974.72;;;27.56;100.00
6034;BME280;3045;43.226;27.858;2023-07-08T09:34:37;152978.56;;;27.58;100.00
6034;BME280;3045;43.226;27.858;2023-07-08T09:37:21;152993.91;;;27.64;100.00
6034;BME280;3045;43.226;27.858;2023-07-08T09:39:49;152961.91;;;27.51;100.00
6034;BME280;3045;43.226;27.858;2023-07-08T09:42:16;152986.25;;;27.61;100.00
6034;BME280;3045;43.226;27.858;2023-07-08T09:44:45;152967.06;;;27.53;100.00
6034;BME280;3045;43.226;27.858;2023-07-08T09:47:24;152984.97;;;27.60;100.00
6034;BME280;3045;43.226;27.858;2023-07-08T09:49:53;153046.38;;;27.85;100.00
6034;BME280;3045;43.226;27.858;2023-07-08T09:52:21;153100.13;;;28.06;100.00
6034;BME280;3045;43.226;27.858;2023-07-08T09:54:49;153130.88;;;28.18;100.00
6034;BME280;3045;43.226;27.858;2023-07-08T09:57:28;153171.88;;;28.34;100.00
6034;BME280;3045;43.226;27.858;2023-07-08T09:59:58;153155.22;;;28.28;100.00
6034;BME280;3045;43.226;27.858;2023-07-08T10:02:31;153118.13;;;28.13;100.00
6034;BME280;3045;43.226;27.858;2023-07-08T10:05:00;153151.41;;;28.26;100.00
6034;BME280;3045;43.226;27.858;2023-07-08T10:07:30;153114.25;;;28.11;100.00
6034;BME280;3045;43.226;27.858;2023-07-08T10:09:59;153057.88;;;27.89;100.00
6034;BME280;3045;43.226;27.858;2023-07-08T10:12:28;153023.31;;;27.76;100.00
6034;BME280;3045;43.226;27.858;2023-07-08T10:14:59;153025.91;;;27.77;100.00
6034;BME280;3045;43.226;27.858;2023-07-08T10:17:28;153034.84;;;27.80;100.00
6034;BME280;3045;43.226;27.858;2023-07-08T10:19:56;153031.03;;;27.79;100.00
6034;BME280;3045;43.226;27.858;2023-07-08T10:22:39;153036.13;;;27.81;100.00
6034;BME280;3045;43.226;27.858;2023-07-08T10:25:23;152964.50;;;27.52;100.00
6034;BME280;3045;43.226;27.858;2023-07-08T10:27:57;152943.97;;;27.44;100.00
6034;BME280;3045;43.226;27.858;2023-07-08T10:30:31;152947.78;;;27.46;100.00
6034;BME280;3045;43.226;27.858;2023-07-08T10:33:18;152932.47;;;27.40;100.00
6034;BME280;3045;43.226;27.858;2023-07-08T10:36:05;152926.03;;;27.37;100.00
6034;BME280;3045;43.226;27.858;2023-07-08T10:38:46;152899.19;;;27.26;100.00
6034;BME280;3045;43.226;27.858;2023-07-08T10:41:24;152828.84;;;26.99;100.00
6034;BME280;3045;43.226;27.858;2023-07-08T10:44:02;152777.59;;;26.78;100.00
6034;BME280;3045;43.226;27.858;2023-07-08T10:46:42;152757.16;;;26.70;100.00
6034;BME280;3045;43.226;27.858;2023-07-08T10:49:46;152749.50;;;26.67;100.00
6034;BME280;3045;43.226;27.858;2023-07-08T10:52:35;152730.31;;;26.60;100.00
6034;BME280;3045;43.226;27.858;2023-07-08T10:55:29;152662.53;;;26.33;100.00
6034;BME280;3045;43.226;27.858;2023-07-08T11:00:56;152565.31;;;25.95;100.00
6034;BME280;3045;43.226;27.858;2023-07-08T11:03:58;152575.56;;;25.99;100.00
6034;BME280;3045;43.226;27.858;2023-07-08T11:06:39;152562.75;;;25.93;100.00
6034;BME280;3045;43.226;27.858;2023-07-08T11:09:12;152571.69;;;25.97;100.00
6034;BME280;3045;43.226;27.858;2023-07-08T11:11:43;152562.75;;;25.93;100.00
6034;BME280;3045;43.226;27.858;2023-07-08T11:14:14;152565.31;;;25.95;100.00
6034;BME280;3045;43.226;27.858;2023-07-08T11:16:47;152594.72;;;26.06;100.00
6034;BME280;3045;43.226;27.858;2023-07-08T11:19:22;152636.94;;;26.23;100.00
6034;BME280;3045;43.226;27.858;2023-07-08T11:21:53;152679.13;;;26.40;100.00
6034;BME280;3045;43.226;27.858;2023-07-08T11:24:26;152691.94;;;26.45;100.00
6034;BME280;3045;43.226;27.858;2023-07-08T11:26:58;152665.09;;;26.34;100.00
6034;BME280;3045;43.226;27.858;2023-07-08T11:29:32;152634.44;;;26.22;100.00
6034;BME280;3045;43.226;27.858;2023-07-08T11:32:03;152636.94;;;26.23;100.00
6034;BME280;3045;43.226;27.858;2023-07-08T11:34:32;152652.31;;;26.29;100.00
6034;BME280;3045;43.226;27.858;2023-07-08T11:37:00;152665.09;;;26.34;100.00
6034;BME280;3045;43.226;27.858;2023-07-08T11:39:32;152685.56;;;26.42;100.00
6034;BME280;3045;43.226;27.858;2023-07-08T11:42:23;152695.78;;;26.46;100.00
6034;BME280;3045;43.226;27.858;2023-07-08T11:44:53;152744.34;;;26.65;100.00
6034;BME280;3045;43.226;27.858;2023-07-08T11:47:34;152741.84;;;26.64;100.00
6034;BME280;3045;43.226;27.858;2023-07-08T11:50:08;152677.91;;;26.39;100.00
6034;BME280;3045;43.226;27.858;2023-07-08T11:52:51;152729.03;;;26.59;100.00
6034;BME280;3045;43.226;27.858;2023-07-08T11:55:22;152755.88;;;26.70;100.00
6034;BME280;3045;43.226;27.858;2023-07-08T11:57:54;152764.81;;;26.73;100.00
6034;BME280;3045;43.226;27.858;2023-07-08T12:00:24;152786.56;;;26.82;100.00
6034;BME280;3045;43.226;27.858;2023-07-08T12:02:55;152777.59;;;26.78;100.00
6034;BME280;3045;43.226;27.858;2023-07-08T12:05:34;152804.53;;;26.89;100.00
6034;BME280;3045;43.226;27.858;2023-07-08T12:08:03;152816.06;;;26.94;100.00
6034;BME280;3045;43.226;27.858;2023-07-08T12:10:39;152810.91;;;26.92;100.00
6034;BME280;3045;43.226;27.858;2023-07-08T12:13:11;152776.31;;;26.78;100.00
6034;BME280;3045;43.226;27.858;2023-07-08T12:15:39;152805.81;;;26.90;100.00
6034;BME280;3045;43.226;27.858;2023-07-08T12:18:15;152789.13;;;26.83;100.00
6034;BME280;3045;43.226;27.858;2023-07-08T12:20:47;152814.78;;;26.93;100.00
6034;BME280;3045;43.226;27.858;2023-07-08T12:23:20;152809.63;;;26.91;100.00
6034;BME280;3045;43.226;27.858;2023-07-08T12:25:48;152822.44;;;26.96;100.00
6034;BME280;3045;43.226;27.858;2023-07-08T12:28:15;152807.09;;;26.90;100.00
6034;BME280;3045;43.226;27.858;2023-07-08T12:30:44;152823.72;;;26.97;100.00
6034;BME280;3045;43.226;27.858;2023-07-08T12:33:13;152855.69;;;27.09;100.00
6034;BME280;3045;43.226;27.858;2023-07-08T12:35:42;152846.75;;;27.06;100.00
6034;BME280;3045;43.226;27.858;2023-07-08T12:38:18;152787.84;;;26.82;100.00
6034;BME280;3045;43.226;27.858;2023-07-08T12:40:46;152813.47;;;26.93;100.00
6034;BME280;3045;43.226;27.858;2023-07-08T12:43:13;152844.19;;;27.05;100.00
6034;BME280;3045;43.226;27.858;2023-07-08T12:45:43;152854.41;;;27.09;100.00
6034;BME280;3045;43.226;27.858;2023-07-08T12:48:10;152849.31;;;27.07;100.00
6034;BME280;3045;43.226;27.858;2023-07-08T12:50:37;152912.00;;;27.32;100.00
6034;BME280;3045;43.226;27.858;2023-07-08T12:53:05;152912.00;;;27.32;100.00
6034;BME280;3045;43.226;27.858;2023-07-08T12:55:37;152920.94;;;27.35;100.00
6034;BME280;3045;43.226;27.858;2023-07-08T12:58:05;152974.72;;;27.56;100.00
6034;BME280;3045;43.226;27.858;2023-07-08T13:00:39;152990.09;;;27.62;100.00
6034;BME280;3045;43.226;27.858;2023-07-08T13:03:08;152956.81;;;27.49;100.00
6034;BME280;3045;43.226;27.858;2023-07-08T13:05:40;152926.03;;;27.37;100.00
6034;BME280;3045;43.226;27.858;2023-07-08T13:08:11;152892.81;;;27.24;100.00
6034;BME280;3045;43.226;27.858;2023-07-08T13:10:40;152897.91;;;27.26;100.00
6034;BME280;3045;43.226;27.858;2023-07-08T13:13:11;152867.22;;;27.14;100.00